sensor_id;sensor_type;location;lat;lon;timestamp;P1;durP1;ratioP1;P2;durP2;ratioP2
12567;SDS011;6349;50.904;6.136;2022-12-07T00:00:42;10.77;;;9.77;;
12567;SDS011;6349;50.904;6.136;2022-12-07T00:02:42;14.20;;;10.47;;
12567;SDS011;6349;50.904;6.136;2022-12-07T00:04:43;11.67;;;10.47;;
12567;SDS011;6349;50.904;6.136;2022-12-07T00:06:45;11.97;;;10.43;;
12567;SDS011;6349;50.904;6.136;2022-12-07T00:08:50;11.23;;;10.13;;
12567;SDS011;6349;50.904;6.136;2022-12-07T00:10:50;11.17;;;10.07;;
12567;SDS011;6349;50.904;6.136;2022-12-07T00:12:51;11.93;;;10.67;;
12567;SDS011;6349;50.904;6.136;2022-12-07T00:14:51;11.90;;;10.60;;
12567;SDS011;6349;50.904;6.136;2022-12-07T00:16:52;12.90;;;10.73;;
12567;SDS011;6349;50.904;6.136;2022-12-07T00:18:53;11.77;;;10.60;;
12567;SDS011;6349;50.904;6.136;2022-12-07T00:20:58;12.43;;;10.07;;
12567;SDS011;6349;50.904;6.136;2022-12-07T00:23:00;12.90;;;10.03;;
12567;SDS011;6349;50.904;6.136;2022-12-07T00:25:01;14.17;;;10.33;;
12567;SDS011;6349;50.904;6.136;2022-12-07T00:27:01;11.93;;;10.57;;
12567;SDS011;6349;50.904;6.136;2022-12-07T00:29:03;11.00;;;9.87;;
12567;SDS011;6349;50.904;6.136;2022-12-07T00:31:07;12.20;;;10.03;;
12567;SDS011;6349;50.904;6.136;2022-12-07T00:33:09;11.57;;;10.37;;
12567;SDS011;6349;50.904;6.136;2022-12-07T00:35:10;11.70;;;10.57;;
12567;SDS011;6349;50.904;6.136;2022-12-07T00:37:10;11.30;;;10.17;;
12567;SDS011;6349;50.904;6.136;2022-12-07T00:39:12;12.70;;;10.27;;
12567;SDS011;6349;50.904;6.136;2022-12-07T00:41:14;11.27;;;10.07;;
12567;SDS011;6349;50.904;6.136;2022-12-07T00:43:17;11.90;;;10.50;;
12567;SDS011;6349;50.904;6.136;2022-12-07T00:45:17;12.43;;;10.30;;
12567;SDS011;6349;50.904;6.136;2022-12-07T00:47:18;11.50;;;10.07;;
12567;SDS011;6349;50.904;6.136;2022-12-07T00:49:18;12.77;;;10.10;;
12567;SDS011;6349;50.904;6.136;2022-12-07T00:51:20;11.20;;;9.97;;
12567;SDS011;6349;50.904;6.136;2022-12-07T00:53:22;12.53;;;10.07;;
12567;SDS011;6349;50.904;6.136;2022-12-07T00:55:23;10.73;;;9.63;;
12567;SDS011;6349;50.904;6.136;2022-12-07T00:57:23;11.90;;;10.00;;
12567;SDS011;6349;50.904;6.136;2022-12-07T00:59:24;11.80;;;10.10;;
12567;SDS011;6349;50.904;6.136;2022-12-07T01:01:25;10.10;;;9.10;;
12567;SDS011;6349;50.904;6.136;2022-12-07T01:03:28;11.40;;;9.77;;
12567;SDS011;6349;50.904;6.136;2022-12-07T01:05:28;11.40;;;9.43;;
12567;SDS011;6349;50.904;6.136;2022-12-07T01:07:29;10.03;;;9.00;;
12567;SDS011;6349;50.904;6.136;2022-12-07T01:09:30;10.57;;;8.90;;
12567;SDS011;6349;50.904;6.136;2022-12-07T01:11:30;10.80;;;9.70;;
12567;SDS011;6349;50.904;6.136;2022-12-07T01:13:31;11.00;;;8.97;;
12567;SDS011;6349;50.904;6.136;2022-12-07T01:15:33;9.67;;;8.67;;
12567;SDS011;6349;50.904;6.136;2022-12-07T01:17:34;9.97;;;8.87;;
12567;SDS011;6349;50.904;6.136;2022-12-07T01:19:34;11.10;;;9.43;;
12567;SDS011;6349;50.904;6.136;2022-12-07T01:21:35;10.93;;;9.10;;
12567;SDS011;6349;50.904;6.136;2022-12-07T01:23:37;11.63;;;9.33;;
12567;SDS011;6349;50.904;6.136;2022-12-07T01:25:38;10.77;;;9.43;;
12567;SDS011;6349;50.904;6.136;2022-12-07T01:27:39;9.73;;;8.83;;
12567;SDS011;6349;50.904;6.136;2022-12-07T01:29:39;10.40;;;9.40;;
12567;SDS011;6349;50.904;6.136;2022-12-07T01:31:40;10.63;;;9.57;;
12567;SDS011;6349;50.904;6.136;2022-12-07T01:33:41;11.10;;;9.87;;
12567;SDS011;6349;50.904;6.136;2022-12-07T01:35:44;11.10;;;10.00;;
12567;SDS011;6349;50.904;6.136;2022-12-07T01:37:44;12.53;;;10.73;;
12567;SDS011;6349;50.904;6.136;2022-12-07T01:39:48;13.03;;;10.97;;
12567;SDS011;6349;50.904;6.136;2022-12-07T01:41:49;12.03;;;10.73;;
12567;SDS011;6349;50.904;6.136;2022-12-07T01:44:23;13.50;;;12.10;;
12567;SDS011;6349;50.904;6.136;2022-12-07T01:46:27;13.43;;;12.03;;
12567;SDS011;6349;50.904;6.136;2022-12-07T01:48:29;13.13;;;11.77;;
12567;SDS011;6349;50.904;6.136;2022-12-07T01:50:37;13.23;;;11.83;;
12567;SDS011;6349;50.904;6.136;2022-12-07T01:52:40;13.30;;;12.00;;
12567;SDS011;6349;50.904;6.136;2022-12-07T01:54:43;13.43;;;12.03;;
12567;SDS011;6349;50.904;6.136;2022-12-07T01:56:47;14.63;;;13.03;;
12567;SDS011;6349;50.904;6.136;2022-12-07T01:58:51;14.50;;;13.07;;
12567;SDS011;6349;50.904;6.136;2022-12-07T02:00:54;13.97;;;12.57;;
12567;SDS011;6349;50.904;6.136;2022-12-07T02:02:55;14.80;;;13.20;;
12567;SDS011;6349;50.904;6.136;2022-12-07T02:05:02;15.00;;;13.50;;
12567;SDS011;6349;50.904;6.136;2022-12-07T02:07:05;14.60;;;13.20;;
12567;SDS011;6349;50.904;6.136;2022-12-07T02:09:06;14.30;;;12.80;;
12567;SDS011;6349;50.904;6.136;2022-12-07T02:11:07;16.37;;;13.87;;
12567;SDS011;6349;50.904;6.136;2022-12-07T02:13:16;14.53;;;13.03;;
12567;SDS011;6349;50.904;6.136;2022-12-07T02:15:20;13.63;;;12.23;;
12567;SDS011;6349;50.904;6.136;2022-12-07T02:17:26;14.47;;;12.97;;
12567;SDS011;6349;50.904;6.136;2022-12-07T02:20:10;14.63;;;12.77;;
12567;SDS011;6349;50.904;6.136;2022-12-07T02:22:16;14.43;;;12.93;;
12567;SDS011;6349;50.904;6.136;2022-12-07T02:27:27;15.93;;;13.30;;
12567;SDS011;6349;50.904;6.136;2022-12-07T02:29:49;14.10;;;12.67;;
12567;SDS011;6349;50.904;6.136;2022-12-07T02:32:10;15.20;;;12.53;;
12567;SDS011;6349;50.904;6.136;2022-12-07T02:34:27;14.67;;;12.73;;
12567;SDS011;6349;50.904;6.136;2022-12-07T02:36:44;13.97;;;12.47;;
12567;SDS011;6349;50.904;6.136;2022-12-07T02:38:55;15.13;;;13.40;;
12567;SDS011;6349;50.904;6.136;2022-12-07T02:41:17;15.10;;;13.07;;
12567;SDS011;6349;50.904;6.136;2022-12-07T02:43:33;14.53;;;12.90;;
12567;SDS011;6349;50.904;6.136;2022-12-07T02:45:40;15.73;;;13.00;;
12567;SDS011;6349;50.904;6.136;2022-12-07T02:47:42;14.37;;;12.53;;
12567;SDS011;6349;50.904;6.136;2022-12-07T02:49:44;15.53;;;12.87;;
12567;SDS011;6349;50.904;6.136;2022-12-07T02:51:46;14.10;;;12.67;;
12567;SDS011;6349;50.904;6.136;2022-12-07T02:53:46;14.70;;;12.83;;
12567;SDS011;6349;50.904;6.136;2022-12-07T02:55:47;15.00;;;13.03;;
12567;SDS011;6349;50.904;6.136;2022-12-07T02:57:53;14.23;;;12.63;;
12567;SDS011;6349;50.904;6.136;2022-12-07T03:00:15;13.50;;;12.10;;
12567;SDS011;6349;50.904;6.136;2022-12-07T03:09:50;14.37;;;12.87;;
12567;SDS011;6349;50.904;6.136;2022-12-07T03:12:15;14.93;;;12.70;;
12567;SDS011;6349;50.904;6.136;2022-12-07T03:14:23;15.87;;;13.33;;
12567;SDS011;6349;50.904;6.136;2022-12-07T03:16:37;13.83;;;12.43;;
12567;SDS011;6349;50.904;6.136;2022-12-07T03:18:52;14.50;;;12.43;;
12567;SDS011;6349;50.904;6.136;2022-12-07T03:20:58;14.33;;;12.37;;
12567;SDS011;6349;50.904;6.136;2022-12-07T03:23:06;15.60;;;12.40;;
12567;SDS011;6349;50.904;6.136;2022-12-07T03:25:10;16.70;;;13.13;;
12567;SDS011;6349;50.904;6.136;2022-12-07T03:27:18;14.67;;;12.67;;
12567;SDS011;6349;50.904;6.136;2022-12-07T03:29:23;14.07;;;12.30;;
12567;SDS011;6349;50.904;6.136;2022-12-07T03:31:29;14.33;;;12.40;;
12567;SDS011;6349;50.904;6.136;2022-12-07T03:33:37;15.40;;;12.63;;
12567;SDS011;6349;50.904;6.136;2022-12-07T03:35:47;13.70;;;12.23;;
12567;SDS011;6349;50.904;6.136;2022-12-07T03:38:14;16.40;;;12.53;;
12567;SDS011;6349;50.904;6.136;2022-12-07T03:40:25;13.93;;;12.37;;
12567;SDS011;6349;50.904;6.136;2022-12-07T03:42:30;14.13;;;12.53;;
12567;SDS011;6349;50.904;6.136;2022-12-07T03:44:32;13.20;;;11.77;;
12567;SDS011;6349;50.904;6.136;2022-12-07T03:46:52;14.27;;;12.60;;
12567;SDS011;6349;50.904;6.136;2022-12-07T03:49:23;14.73;;;11.93;;
12567;SDS011;6349;50.904;6.136;2022-12-07T03:51:42;13.30;;;11.90;;
12567;SDS011;6349;50.904;6.136;2022-12-07T03:53:54;13.93;;;12.03;;
12567;SDS011;6349;50.904;6.136;2022-12-07T03:56:00;13.60;;;11.93;;
12567;SDS011;6349;50.904;6.136;2022-12-07T03:58:03;15.53;;;12.60;;
12567;SDS011;6349;50.904;6.136;2022-12-07T04:00:08;15.13;;;12.70;;
12567;SDS011;6349;50.904;6.136;2022-12-07T04:02:11;14.80;;;13.20;;
12567;SDS011;6349;50.904;6.136;2022-12-07T04:04:13;15.43;;;13.30;;
12567;SDS011;6349;50.904;6.136;2022-12-07T04:06:14;13.90;;;12.40;;
12567;SDS011;6349;50.904;6.136;2022-12-07T04:08:15;13.70;;;12.20;;
12567;SDS011;6349;50.904;6.136;2022-12-07T04:10:16;14.47;;;12.60;;
12567;SDS011;6349;50.904;6.136;2022-12-07T04:12:16;16.50;;;13.00;;
12567;SDS011;6349;50.904;6.136;2022-12-07T04:14:17;14.63;;;12.70;;
12567;SDS011;6349;50.904;6.136;2022-12-07T04:16:18;14.20;;;12.53;;
12567;SDS011;6349;50.904;6.136;2022-12-07T04:18:19;13.43;;;12.03;;
12567;SDS011;6349;50.904;6.136;2022-12-07T04:20:19;14.37;;;12.37;;
12567;SDS011;6349;50.904;6.136;2022-12-07T04:22:20;13.37;;;11.43;;
12567;SDS011;6349;50.904;6.136;2022-12-07T04:24:21;13.53;;;12.07;;
12567;SDS011;6349;50.904;6.136;2022-12-07T04:26:22;13.53;;;12.13;;
12567;SDS011;6349;50.904;6.136;2022-12-07T04:28:22;14.90;;;13.30;;
12567;SDS011;6349;50.904;6.136;2022-12-07T04:30:23;13.70;;;12.30;;
12567;SDS011;6349;50.904;6.136;2022-12-07T04:32:24;15.00;;;13.13;;
12567;SDS011;6349;50.904;6.136;2022-12-07T04:34:24;13.47;;;12.07;;
12567;SDS011;6349;50.904;6.136;2022-12-07T04:36:25;13.60;;;12.20;;
12567;SDS011;6349;50.904;6.136;2022-12-07T04:38:26;13.20;;;11.80;;
12567;SDS011;6349;50.904;6.136;2022-12-07T04:40:26;14.73;;;12.33;;
12567;SDS011;6349;50.904;6.136;2022-12-07T04:42:27;14.33;;;12.83;;
12567;SDS011;6349;50.904;6.136;2022-12-07T04:44:28;14.30;;;12.43;;
12567;SDS011;6349;50.904;6.136;2022-12-07T04:46:30;15.50;;;12.80;;
12567;SDS011;6349;50.904;6.136;2022-12-07T04:48:31;15.37;;;12.97;;
12567;SDS011;6349;50.904;6.136;2022-12-07T04:50:32;12.87;;;11.57;;
12567;SDS011;6349;50.904;6.136;2022-12-07T04:52:32;13.80;;;12.50;;
12567;SDS011;6349;50.904;6.136;2022-12-07T04:54:33;13.53;;;12.20;;
12567;SDS011;6349;50.904;6.136;2022-12-07T04:56:34;14.37;;;12.20;;
12567;SDS011;6349;50.904;6.136;2022-12-07T04:58:35;15.33;;;11.93;;
12567;SDS011;6349;50.904;6.136;2022-12-07T05:00:36;14.63;;;12.17;;
12567;SDS011;6349;50.904;6.136;2022-12-07T05:02:36;13.23;;;11.83;;
12567;SDS011;6349;50.904;6.136;2022-12-07T05:04:37;14.90;;;12.27;;
12567;SDS011;6349;50.904;6.136;2022-12-07T05:06:37;13.77;;;12.33;;
12567;SDS011;6349;50.904;6.136;2022-12-07T05:08:38;12.50;;;11.20;;
12567;SDS011;6349;50.904;6.136;2022-12-07T05:10:39;14.10;;;12.03;;
12567;SDS011;6349;50.904;6.136;2022-12-07T05:12:40;13.03;;;11.63;;
12567;SDS011;6349;50.904;6.136;2022-12-07T05:14:40;14.23;;;12.73;;
12567;SDS011;6349;50.904;6.136;2022-12-07T05:16:42;14.23;;;12.73;;
12567;SDS011;6349;50.904;6.136;2022-12-07T05:18:44;15.00;;;12.40;;
12567;SDS011;6349;50.904;6.136;2022-12-07T05:20:45;13.87;;;12.40;;
12567;SDS011;6349;50.904;6.136;2022-12-07T05:22:46;14.10;;;12.50;;
12567;SDS011;6349;50.904;6.136;2022-12-07T05:24:47;13.33;;;11.93;;
12567;SDS011;6349;50.904;6.136;2022-12-07T05:26:47;13.77;;;11.90;;
12567;SDS011;6349;50.904;6.136;2022-12-07T05:28:50;14.33;;;12.03;;
12567;SDS011;6349;50.904;6.136;2022-12-07T05:30:51;14.53;;;11.27;;
12567;SDS011;6349;50.904;6.136;2022-12-07T05:32:52;13.13;;;11.47;;
12567;SDS011;6349;50.904;6.136;2022-12-07T05:34:53;13.13;;;11.07;;
12567;SDS011;6349;50.904;6.136;2022-12-07T05:36:54;13.00;;;11.60;;
12567;SDS011;6349;50.904;6.136;2022-12-07T05:38:55;12.60;;;11.30;;
12567;SDS011;6349;50.904;6.136;2022-12-07T05:40:59;12.47;;;11.17;;
12567;SDS011;6349;50.904;6.136;2022-12-07T05:43:01;11.63;;;10.43;;
12567;SDS011;6349;50.904;6.136;2022-12-07T05:45:02;12.37;;;10.70;;
12567;SDS011;6349;50.904;6.136;2022-12-07T05:47:03;12.23;;;10.90;;
12567;SDS011;6349;50.904;6.136;2022-12-07T05:49:04;13.23;;;10.67;;
12567;SDS011;6349;50.904;6.136;2022-12-07T05:51:04;10.67;;;9.40;;
12567;SDS011;6349;50.904;6.136;2022-12-07T05:53:05;12.17;;;10.23;;
12567;SDS011;6349;50.904;6.136;2022-12-07T05:55:06;10.77;;;9.67;;
12567;SDS011;6349;50.904;6.136;2022-12-07T05:57:07;11.87;;;9.97;;
12567;SDS011;6349;50.904;6.136;2022-12-07T05:59:08;11.80;;;10.03;;
12567;SDS011;6349;50.904;6.136;2022-12-07T06:01:24;12.07;;;10.73;;
12567;SDS011;6349;50.904;6.136;2022-12-07T06:03:24;11.07;;;9.93;;
12567;SDS011;6349;50.904;6.136;2022-12-07T06:05:25;12.47;;;10.80;;
12567;SDS011;6349;50.904;6.136;2022-12-07T06:07:26;11.73;;;10.10;;
12567;SDS011;6349;50.904;6.136;2022-12-07T06:09:27;11.37;;;9.93;;
12567;SDS011;6349;50.904;6.136;2022-12-07T06:11:28;12.27;;;10.97;;
12567;SDS011;6349;50.904;6.136;2022-12-07T06:13:49;11.97;;;10.77;;
12567;SDS011;6349;50.904;6.136;2022-12-07T06:15:49;11.40;;;9.70;;
12567;SDS011;6349;50.904;6.136;2022-12-07T06:17:50;11.10;;;10.00;;
12567;SDS011;6349;50.904;6.136;2022-12-07T06:19:51;12.50;;;9.80;;
12567;SDS011;6349;50.904;6.136;2022-12-07T06:21:52;13.03;;;10.50;;
12567;SDS011;6349;50.904;6.136;2022-12-07T06:23:53;11.60;;;10.40;;
12567;SDS011;6349;50.904;6.136;2022-12-07T06:25:53;11.97;;;10.40;;
12567;SDS011;6349;50.904;6.136;2022-12-07T06:27:54;12.40;;;10.07;;
12567;SDS011;6349;50.904;6.136;2022-12-07T06:29:55;13.03;;;10.33;;
12567;SDS011;6349;50.904;6.136;2022-12-07T06:31:56;11.70;;;10.50;;
12567;SDS011;6349;50.904;6.136;2022-12-07T06:33:57;12.57;;;10.13;;
12567;SDS011;6349;50.904;6.136;2022-12-07T06:35:59;12.40;;;10.70;;
12567;SDS011;6349;50.904;6.136;2022-12-07T06:37:59;11.73;;;10.60;;
12567;SDS011;6349;50.904;6.136;2022-12-07T06:40:00;13.60;;;10.50;;
12567;SDS011;6349;50.904;6.136;2022-12-07T06:42:01;12.23;;;10.33;;
12567;SDS011;6349;50.904;6.136;2022-12-07T06:44:02;12.20;;;11.00;;
12567;SDS011;6349;50.904;6.136;2022-12-07T06:46:03;11.70;;;10.37;;
12567;SDS011;6349;50.904;6.136;2022-12-07T06:48:04;11.90;;;10.17;;
12567;SDS011;6349;50.904;6.136;2022-12-07T06:50:05;12.17;;;10.57;;
12567;SDS011;6349;50.904;6.136;2022-12-07T06:52:07;12.13;;;10.77;;
12567;SDS011;6349;50.904;6.136;2022-12-07T06:54:45;12.57;;;11.23;;
12567;SDS011;6349;50.904;6.136;2022-12-07T06:56:49;15.65;;;12.00;;
12567;SDS011;6349;50.904;6.136;2022-12-07T06:58:50;12.10;;;10.77;;
12567;SDS011;6349;50.904;6.136;2022-12-07T07:00:50;12.40;;;10.73;;
12567;SDS011;6349;50.904;6.136;2022-12-07T07:02:51;13.90;;;11.47;;
12567;SDS011;6349;50.904;6.136;2022-12-07T07:04:51;12.57;;;11.27;;
12567;SDS011;6349;50.904;6.136;2022-12-07T07:06:52;12.27;;;10.67;;
12567;SDS011;6349;50.904;6.136;2022-12-07T07:08:53;13.27;;;11.33;;
12567;SDS011;6349;50.904;6.136;2022-12-07T07:10:53;12.57;;;11.27;;
12567;SDS011;6349;50.904;6.136;2022-12-07T07:12:54;13.17;;;11.10;;
12567;SDS011;6349;50.904;6.136;2022-12-07T07:14:55;13.47;;;12.07;;
12567;SDS011;6349;50.904;6.136;2022-12-07T07:16:56;13.80;;;11.53;;
12567;SDS011;6349;50.904;6.136;2022-12-07T07:18:57;14.73;;;11.53;;
12567;SDS011;6349;50.904;6.136;2022-12-07T07:20:58;13.10;;;10.93;;
12567;SDS011;6349;50.904;6.136;2022-12-07T07:22:58;14.03;;;11.77;;
12567;SDS011;6349;50.904;6.136;2022-12-07T07:24:59;13.17;;;11.77;;
12567;SDS011;6349;50.904;6.136;2022-12-07T07:27:00;13.60;;;11.67;;
12567;SDS011;6349;50.904;6.136;2022-12-07T07:29:01;12.50;;;11.20;;
12567;SDS011;6349;50.904;6.136;2022-12-07T07:31:02;14.27;;;12.03;;
12567;SDS011;6349;50.904;6.136;2022-12-07T07:33:03;13.50;;;12.10;;
12567;SDS011;6349;50.904;6.136;2022-12-07T07:35:05;13.57;;;12.17;;
12567;SDS011;6349;50.904;6.136;2022-12-07T07:37:06;13.00;;;11.70;;
12567;SDS011;6349;50.904;6.136;2022-12-07T07:39:06;14.30;;;11.27;;
12567;SDS011;6349;50.904;6.136;2022-12-07T07:41:07;14.70;;;12.53;;
12567;SDS011;6349;50.904;6.136;2022-12-07T07:43:07;13.50;;;12.03;;
12567;SDS011;6349;50.904;6.136;2022-12-07T07:45:08;13.80;;;12.40;;
12567;SDS011;6349;50.904;6.136;2022-12-07T07:47:09;15.60;;;11.83;;
12567;SDS011;6349;50.904;6.136;2022-12-07T07:49:10;13.40;;;11.87;;
12567;SDS011;6349;50.904;6.136;2022-12-07T07:51:11;13.43;;;12.00;;
12567;SDS011;6349;50.904;6.136;2022-12-07T07:53:11;13.27;;;11.87;;
12567;SDS011;6349;50.904;6.136;2022-12-07T07:55:12;12.90;;;11.60;;
12567;SDS011;6349;50.904;6.136;2022-12-07T07:57:13;14.97;;;12.60;;
12567;SDS011;6349;50.904;6.136;2022-12-07T07:59:14;14.40;;;11.77;;
12567;SDS011;6349;50.904;6.136;2022-12-07T08:01:15;14.30;;;12.23;;
12567;SDS011;6349;50.904;6.136;2022-12-07T08:03:16;13.83;;;11.87;;
12567;SDS011;6349;50.904;6.136;2022-12-07T08:05:17;13.50;;;11.63;;
12567;SDS011;6349;50.904;6.136;2022-12-07T08:07:18;14.10;;;12.17;;
12567;SDS011;6349;50.904;6.136;2022-12-07T08:09:19;16.13;;;11.83;;
12567;SDS011;6349;50.904;6.136;2022-12-07T08:11:19;13.10;;;11.53;;
12567;SDS011;6349;50.904;6.136;2022-12-07T08:13:20;13.17;;;11.77;;
12567;SDS011;6349;50.904;6.136;2022-12-07T08:15:21;13.40;;;11.67;;
12567;SDS011;6349;50.904;6.136;2022-12-07T08:17:21;13.23;;;11.43;;
12567;SDS011;6349;50.904;6.136;2022-12-07T08:19:22;13.50;;;11.63;;
12567;SDS011;6349;50.904;6.136;2022-12-07T08:21:23;12.23;;;10.90;;
12567;SDS011;6349;50.904;6.136;2022-12-07T08:23:24;13.03;;;11.20;;
12567;SDS011;6349;50.904;6.136;2022-12-07T08:25:24;12.37;;;10.67;;
12567;SDS011;6349;50.904;6.136;2022-12-07T08:27:25;12.33;;;10.10;;
12567;SDS011;6349;50.904;6.136;2022-12-07T08:29:27;11.03;;;9.93;;
12567;SDS011;6349;50.904;6.136;2022-12-07T08:31:28;10.87;;;9.50;;
12567;SDS011;6349;50.904;6.136;2022-12-07T08:33:28;11.20;;;9.70;;
12567;SDS011;6349;50.904;6.136;2022-12-07T08:35:29;10.77;;;9.67;;
12567;SDS011;6349;50.904;6.136;2022-12-07T08:37:32;10.53;;;9.30;;
12567;SDS011;6349;50.904;6.136;2022-12-07T08:39:33;10.87;;;8.90;;
12567;SDS011;6349;50.904;6.136;2022-12-07T08:41:33;10.97;;;9.50;;
12567;SDS011;6349;50.904;6.136;2022-12-07T08:43:34;9.87;;;8.80;;
12567;SDS011;6349;50.904;6.136;2022-12-07T08:45:36;9.77;;;8.77;;
12567;SDS011;6349;50.904;6.136;2022-12-07T08:47:40;10.43;;;9.33;;
12567;SDS011;6349;50.904;6.136;2022-12-07T08:49:45;10.00;;;8.80;;
12567;SDS011;6349;50.904;6.136;2022-12-07T08:51:49;10.27;;;9.17;;
12567;SDS011;6349;50.904;6.136;2022-12-07T08:53:50;9.80;;;8.73;;
12567;SDS011;6349;50.904;6.136;2022-12-07T08:55:53;9.63;;;8.57;;
12567;SDS011;6349;50.904;6.136;2022-12-07T08:57:55;9.50;;;8.60;;
12567;SDS011;6349;50.904;6.136;2022-12-07T08:59:58;9.73;;;8.73;;
12567;SDS011;6349;50.904;6.136;2022-12-07T09:01:58;9.70;;;8.67;;
12567;SDS011;6349;50.904;6.136;2022-12-07T09:03:59;9.63;;;8.63;;
12567;SDS011;6349;50.904;6.136;2022-12-07T09:05:59;10.37;;;9.10;;
12567;SDS011;6349;50.904;6.136;2022-12-07T09:08:00;9.70;;;8.70;;
12567;SDS011;6349;50.904;6.136;2022-12-07T09:10:02;10.97;;;9.10;;
12567;SDS011;6349;50.904;6.136;2022-12-07T09:12:03;10.17;;;8.90;;
12567;SDS011;6349;50.904;6.136;2022-12-07T09:14:04;11.27;;;9.53;;
12567;SDS011;6349;50.904;6.136;2022-12-07T09:16:05;10.10;;;8.90;;
12567;SDS011;6349;50.904;6.136;2022-12-07T09:18:06;10.30;;;9.27;;
12567;SDS011;6349;50.904;6.136;2022-12-07T09:20:06;10.57;;;9.13;;
12567;SDS011;6349;50.904;6.136;2022-12-07T09:22:08;11.13;;;9.93;;
12567;SDS011;6349;50.904;6.136;2022-12-07T09:24:08;12.00;;;10.07;;
12567;SDS011;6349;50.904;6.136;2022-12-07T09:26:09;12.93;;;10.07;;
12567;SDS011;6349;50.904;6.136;2022-12-07T09:28:10;12.53;;;9.57;;
12567;SDS011;6349;50.904;6.136;2022-12-07T09:30:11;12.07;;;9.97;;
12567;SDS011;6349;50.904;6.136;2022-12-07T09:32:12;12.27;;;10.50;;
12567;SDS011;6349;50.904;6.136;2022-12-07T09:34:13;11.67;;;10.47;;
12567;SDS011;6349;50.904;6.136;2022-12-07T09:36:13;12.33;;;10.67;;
12567;SDS011;6349;50.904;6.136;2022-12-07T09:38:14;11.77;;;10.00;;
12567;SDS011;6349;50.904;6.136;2022-12-07T09:40:16;12.03;;;10.60;;
12567;SDS011;6349;50.904;6.136;2022-12-07T09:42:28;13.07;;;11.63;;
12567;SDS011;6349;50.904;6.136;2022-12-07T09:44:35;12.60;;;11.10;;
12567;SDS011;6349;50.904;6.136;2022-12-07T09:46:36;14.00;;;11.87;;
12567;SDS011;6349;50.904;6.136;2022-12-07T09:48:40;13.17;;;11.77;;
12567;SDS011;6349;50.904;6.136;2022-12-07T09:50:43;13.17;;;11.50;;
12567;SDS011;6349;50.904;6.136;2022-12-07T09:52:44;13.33;;;11.43;;
12567;SDS011;6349;50.904;6.136;2022-12-07T09:54:48;13.27;;;11.33;;
12567;SDS011;6349;50.904;6.136;2022-12-07T09:56:50;14.20;;;11.73;;
12567;SDS011;6349;50.904;6.136;2022-12-07T09:58:53;12.47;;;11.13;;
12567;SDS011;6349;50.904;6.136;2022-12-07T10:01:01;14.17;;;11.80;;
12567;SDS011;6349;50.904;6.136;2022-12-07T10:03:20;13.53;;;11.70;;
12567;SDS011;6349;50.904;6.136;2022-12-07T10:05:23;14.30;;;11.83;;
12567;SDS011;6349;50.904;6.136;2022-12-07T10:07:27;13.40;;;11.97;;
12567;SDS011;6349;50.904;6.136;2022-12-07T10:09:29;12.93;;;11.57;;
12567;SDS011;6349;50.904;6.136;2022-12-07T10:12:08;14.40;;;11.83;;
12567;SDS011;6349;50.904;6.136;2022-12-07T10:14:10;13.47;;;11.77;;
12567;SDS011;6349;50.904;6.136;2022-12-07T10:16:44;13.27;;;11.87;;
12567;SDS011;6349;50.904;6.136;2022-12-07T10:18:41;12.17;;;10.83;;
12567;SDS011;6349;50.904;6.136;2022-12-07T10:20:42;13.40;;;12.00;;
12567;SDS011;6349;50.904;6.136;2022-12-07T10:23:01;11.80;;;10.60;;
12567;SDS011;6349;50.904;6.136;2022-12-07T10:25:08;12.27;;;10.80;;
12567;SDS011;6349;50.904;6.136;2022-12-07T10:27:20;12.93;;;10.20;;
12567;SDS011;6349;50.904;6.136;2022-12-07T10:29:29;11.93;;;10.40;;
12567;SDS011;6349;50.904;6.136;2022-12-07T10:31:33;11.50;;;10.40;;
12567;SDS011;6349;50.904;6.136;2022-12-07T10:33:55;13.20;;;10.67;;
12567;SDS011;6349;50.904;6.136;2022-12-07T10:35:59;13.23;;;10.87;;
12567;SDS011;6349;50.904;6.136;2022-12-07T10:38:00;12.93;;;10.47;;
12567;SDS011;6349;50.904;6.136;2022-12-07T10:40:01;11.57;;;10.33;;
12567;SDS011;6349;50.904;6.136;2022-12-07T10:42:23;11.83;;;10.27;;
12567;SDS011;6349;50.904;6.136;2022-12-07T10:44:26;12.57;;;10.57;;
12567;SDS011;6349;50.904;6.136;2022-12-07T10:46:32;12.67;;;10.87;;
12567;SDS011;6349;50.904;6.136;2022-12-07T10:52:16;14.90;;;10.27;;
12567;SDS011;6349;50.904;6.136;2022-12-07T11:06:09;11.73;;;9.70;;
12567;SDS011;6349;50.904;6.136;2022-12-07T11:08:43;11.20;;;9.10;;
12567;SDS011;6349;50.904;6.136;2022-12-07T11:11:12;11.03;;;9.80;;
12567;SDS011;6349;50.904;6.136;2022-12-07T11:14:05;10.53;;;9.43;;
12567;SDS011;6349;50.904;6.136;2022-12-07T11:18:50;12.60;;;10.00;;
12567;SDS011;6349;50.904;6.136;2022-12-07T11:21:38;11.40;;;10.20;;
12567;SDS011;6349;50.904;6.136;2022-12-07T11:23:52;10.17;;;9.10;;
12567;SDS011;6349;50.904;6.136;2022-12-07T11:28:15;12.60;;;9.37;;
12567;SDS011;6349;50.904;6.136;2022-12-07T11:30:42;11.03;;;9.10;;
12567;SDS011;6349;50.904;6.136;2022-12-07T11:33:12;11.23;;;9.33;;
12567;SDS011;6349;50.904;6.136;2022-12-07T11:38:07;9.57;;;8.57;;
12567;SDS011;6349;50.904;6.136;2022-12-07T11:40:34;10.33;;;8.90;;
12567;SDS011;6349;50.904;6.136;2022-12-07T11:42:37;11.17;;;8.50;;
12567;SDS011;6349;50.904;6.136;2022-12-07T11:47:02;10.00;;;8.60;;
12567;SDS011;6349;50.904;6.136;2022-12-07T11:49:11;8.80;;;7.83;;
12567;SDS011;6349;50.904;6.136;2022-12-07T11:51:36;9.87;;;8.07;;
12567;SDS011;6349;50.904;6.136;2022-12-07T11:53:39;9.57;;;8.23;;
12567;SDS011;6349;50.904;6.136;2022-12-07T12:08:35;6.40;;;5.70;;
12567;SDS011;6349;50.904;6.136;2022-12-07T12:13:17;7.73;;;5.67;;
12567;SDS011;6349;50.904;6.136;2022-12-07T12:15:29;7.77;;;5.33;;
12567;SDS011;6349;50.904;6.136;2022-12-07T12:20:35;7.73;;;6.03;;
12567;SDS011;6349;50.904;6.136;2022-12-07T12:22:45;5.73;;;5.20;;
12567;SDS011;6349;50.904;6.136;2022-12-07T12:24:51;8.07;;;5.67;;
12567;SDS011;6349;50.904;6.136;2022-12-07T12:26:59;6.50;;;5.73;;
12567;SDS011;6349;50.904;6.136;2022-12-07T12:29:06;6.77;;;5.40;;
12567;SDS011;6349;50.904;6.136;2022-12-07T12:33:31;7.13;;;5.83;;
12567;SDS011;6349;50.904;6.136;2022-12-07T12:35:34;8.13;;;6.03;;
12567;SDS011;6349;50.904;6.136;2022-12-07T12:39:43;8.07;;;6.13;;
12567;SDS011;6349;50.904;6.136;2022-12-07T12:42:20;8.00;;;6.00;;
12567;SDS011;6349;50.904;6.136;2022-12-07T12:48:43;6.57;;;5.97;;
12567;SDS011;6349;50.904;6.136;2022-12-07T12:50:44;7.43;;;6.23;;
12567;SDS011;6349;50.904;6.136;2022-12-07T12:52:47;7.90;;;5.80;;
12567;SDS011;6349;50.904;6.136;2022-12-07T12:55:10;8.00;;;6.43;;
12567;SDS011;6349;50.904;6.136;2022-12-07T12:57:17;7.70;;;5.70;;
12567;SDS011;6349;50.904;6.136;2022-12-07T12:59:31;6.40;;;5.70;;
12567;SDS011;6349;50.904;6.136;2022-12-07T13:01:43;7.30;;;5.67;;
12567;SDS011;6349;50.904;6.136;2022-12-07T13:03:51;6.63;;;5.30;;
12567;SDS011;6349;50.904;6.136;2022-12-07T13:08:36;4.83;;;4.23;;
12567;SDS011;6349;50.904;6.136;2022-12-07T13:10:41;5.07;;;4.50;;
12567;SDS011;6349;50.904;6.136;2022-12-07T13:12:55;6.77;;;4.30;;
12567;SDS011;6349;50.904;6.136;2022-12-07T13:15:02;5.23;;;4.20;;
12567;SDS011;6349;50.904;6.136;2022-12-07T13:17:03;4.90;;;4.03;;
12567;SDS011;6349;50.904;6.136;2022-12-07T13:19:26;7.77;;;4.60;;
12567;SDS011;6349;50.904;6.136;2022-12-07T13:21:44;4.97;;;4.40;;
12567;SDS011;6349;50.904;6.136;2022-12-07T13:25:54;4.83;;;3.93;;
12567;SDS011;6349;50.904;6.136;2022-12-07T13:28:02;6.20;;;4.33;;
12567;SDS011;6349;50.904;6.136;2022-12-07T13:30:20;4.67;;;4.27;;
12567;SDS011;6349;50.904;6.136;2022-12-07T13:32:26;5.00;;;4.23;;
12567;SDS011;6349;50.904;6.136;2022-12-07T13:34:32;6.30;;;4.80;;